Flight Track Log - Related Links

Times and Time Zones

All times are in EDT time to prevent confusion due to time zone crossing. See the N201SU flight status page for this flight to view local times or setup timezone preferences in your user account.

Time Position Orientation Groundspeed Altitude Reporting Facility
EDT Latitude Longitude Course Direction KTS MPH feet Rate Location/Type
Fri 05:14:47 PM 41.6672 -70.9450 156° South 137 158 800  Level Boston Center
Fri 05:15:17 PM 41.6400 -70.9289 156° South 196 226 2,000 3,031 Climbing Boston Center
Fri 05:16:24 PM 41.6161 -71.0072 248° West 217 250 5,700 2,344 Climbing Boston Center
Fri 05:17:25 PM 41.6131 -71.0933 267° West 230 265 7,000 629 Climbing Boston Center
Fri 05:18:28 PM 41.6431 -71.1761 296° West 245 282 7,000  Level Boston Center
Fri 05:19:26 PM 41.6753 -71.2589 298° West 252 290 7,000 -51 Level Boston Center
Fri 05:20:26 PM 41.7031 -71.3417 294° West 251 289 6,900  Descending Boston Center
Fri 05:21:27 PM 41.7353 -71.4386 294° West 255 293 7,000 49 Climbing Boston Center
Fri 05:22:28 PM 41.7631 -71.5244 293° West 251 289 7,000  Level Boston Center
Fri 05:23:35 PM 41.7950 -71.6158 295° West 257 296 7,000  Level Boston Center
Fri 05:24:30 PM 41.8228 -71.6992 294° West 260 299 7,000 796 Level Boston Center
Fri 05:25:28 PM 41.8544 -71.7878 296° West 266 306 8,500 1,462 Climbing Boston Center
Fri 05:26:29 PM 41.8406 -71.8772 258° West 257 296 9,900 1,169 Climbing Boston Center
Fri 05:26:45 PM 41.8322 -71.9022 246° West 267 307 10,000 103 Climbing Boston Center
Fri 05:27:27 PM 41.8075 -71.9778 246° West 291 335 10,000  Level Boston Center
Fri 05:28:27 PM 41.7767 -72.0783 248° West 295 339 10,000  Level Boston Center
Fri 05:29:29 PM 41.7478 -72.1842 250° West 293 337 10,000 -650 Level Boston Center
Fri 05:30:27 PM 41.7167 -72.2817 247° West 281 323 8,700 -1,392 Descending Boston Center
Fri 05:31:34 PM 41.6897 -72.3761 249° West 253 291 7,100 -1,266 Descending Boston Center
Fri 05:32:35 PM 41.6647 -72.4622 249° West 244 281 6,000 -545 Descending Boston Center
Fri 05:33:35 PM 41.6397 -72.5483 249° West 240 276 6,000 -32 Level Boston Center
Fri 05:35:43 PM 41.5833 -72.7167 246° West 244 281 5,900 -32 Descending New York TRACON
Fri 05:36:43 PM 41.5500 -72.8000 242° Southwest 249 287 5,900  Level New York TRACON
Fri 05:37:43 PM 41.5167 -72.8833 242° Southwest 250 288 5,900  Level New York TRACON
Fri 05:38:43 PM 41.5000 -72.9667 255° West 248 285 5,900  Level New York TRACON
Fri 05:39:43 PM 41.4667 -73.0500 242° Southwest 244 281 5,900  Level New York TRACON
Fri 05:40:43 PM 41.4333 -73.1333 242° Southwest 246 283 5,900  Level New York TRACON
Fri 05:41:43 PM 41.4167 -73.2167 255° West 244 281 5,900  Level New York TRACON
Fri 05:42:43 PM 41.3833 -73.3000 242° Southwest 245 282 5,900 50 Level New York TRACON
Fri 05:43:43 PM 41.3500 -73.3667 236° Southwest 246 283 6,000 50 Climbing New York TRACON
Fri 05:44:43 PM 41.3167 -73.4667 246° West 248 285 6,000 -250 Level New York TRACON
Fri 05:45:43 PM 41.3000 -73.5500 255° West 250 288 5,500 -526 Descending New York TRACON
Fri 05:46:37 PM 41.2833 -73.6167 252° West 247 284 5,000 -250 Descending New York TRACON
Fri 05:47:43 PM 41.2667 -73.7167 258° West 236 272 5,000 -238 Level New York TRACON
Fri 05:48:43 PM 41.2667 -73.8000 270° West 237 273 4,500 -500 Descending New York TRACON
Fri 05:49:43 PM 41.2500 -73.8833 255° West 240 276 4,000 -250 Descending New York TRACON
Fri 05:50:43 PM 41.2333 -73.9667 255° West 240 276 4,000  Level New York TRACON
Fri 05:51:43 PM 41.2167 -74.0500 255° West 235 270 4,000  Level New York TRACON
Fri 05:52:43 PM 41.1833 -74.1333 242° Southwest 237 273 4,000  Level New York TRACON
Fri 05:53:43 PM 41.1500 -74.2000 236° Southwest 234 269 4,000  Level New York TRACON
Fri 05:54:43 PM 41.1167 -74.2833 242° Southwest 244 281 4,000  Level New York TRACON
Fri 05:55:43 PM 41.0500 -74.3333 209° Southwest 242 278 4,000 -400 Level New York TRACON
Fri 05:56:43 PM 41.0000 -74.3667 207° Southwest 243 280 3,200 -500 Descending New York TRACON
Fri 05:57:43 PM 40.9500 -74.4167 217° Southwest 228 262 3,000 -100 Descending New York TRACON
Fri 05:58:43 PM 40.9000 -74.4167 180° South 177 204 3,000  Level New York TRACON
Fri 05:59:43 PM 40.8500 -74.4167 180° South 176 203 3,000 -300 Level New York TRACON
Fri 06:00:43 PM 40.8000 -74.4000 166° South 179 206 2,400 -526 Descending New York TRACON
Fri 06:01:37 PM 40.7500 -74.4000 180° South 181 208 2,000 -200 Descending New York TRACON
Fri 06:02:43 PM 40.7167 -74.3500 131° Southeast 180 207 2,000  Level New York TRACON
Fri 06:03:43 PM 40.7167 -74.3000 90° East 171 197 2,000  Level New York TRACON
Fri 06:04:43 PM 40.7333 -74.2333 72° East 173 199 2,000 -250 Level New York TRACON
Fri 06:05:43 PM 40.7667 -74.1833 49° Northeast 174 200 1,500 -250 Descending New York TRACON
Fri 06:06:43 PM 40.8000 -74.1500 37° Northeast 143 165 1,500 -300 Level New York TRACON
Fri 06:07:43 PM 40.8167 -74.1167 57° Northeast 105 121 900 -550 Descending New York TRACON
Fri 06:08:43 PM 40.8333 -74.0833 57° Northeast 105 121 400 -500 Descending New York TRACON

Login

Don't have an account? Register now (free) for customized features, flight alerts, and more!